Time;durP1;ratioP1;P1;durP2;ratioP2;P2;SDS_P1;SDS_P2;PMS_P1;PMS_P2;Temp;Humidity;BMP_temperature;BMP_pressure;BME280_temperature;BME280_humidity;BME280_pressure;Samples;Min_cycle;Max_cycle;Signal;HPM_P1;HPM_P2
2022/07/28 00:00:45;;;;;;;8.43;3.80;;;28.70;57.10;;;;;;5073599;28;20070;-72
2022/07/28 00:03:11;;;;;;;9.05;3.72;;;28.70;57.20;;;;;;5073743;28;20036;-73
2022/07/28 00:05:37;;;;;;;11.15;4.05;;;28.70;57.30;;;;;;5074297;28;20020;-77
2022/07/28 00:08:02;;;;;;;10.27;3.92;;;28.60;57.10;;;;;;5073871;28;20468;-74
2022/07/28 00:10:28;;;;;;;13.57;4.10;;;28.60;57.20;;;;;;5073951;28;20024;-77
2022/07/28 00:12:54;;;;;;;10.20;4.00;;;28.70;57.50;;;;;;5073866;28;20033;-75
2022/07/28 00:15:20;;;;;;;11.18;3.63;;;28.70;57.50;;;;;;5073379;28;20525;-75
2022/07/28 00:17:47;;;;;;;8.13;3.58;;;28.70;57.50;;;;;;5073672;28;20059;-77
2022/07/28 00:20:13;;;;;;;10.65;3.85;;;28.70;57.30;;;;;;5073899;28;20472;-79
2022/07/28 00:22:43;;;;;;;12.02;4.63;;;28.70;57.40;;;;;;5073737;28;20040;-76
2022/07/28 00:25:09;;;;;;;11.32;3.78;;;28.70;57.70;;;;;;5072781;28;20103;-75
2022/07/28 00:27:36;;;;;;;10.07;4.13;;;28.70;57.50;;;;;;5073518;28;20169;-77
2022/07/28 00:30:06;;;;;;;11.15;4.78;;;28.70;57.40;;;;;;5073256;28;20020;-77
2022/07/28 00:32:32;;;;;;;10.07;4.30;;;28.70;57.60;;;;;;5073612;28;20114;-78
2022/07/28 00:34:58;;;;;;;13.50;4.30;;;28.70;57.80;;;;;;5073384;28;20117;-77
2022/07/28 00:37:23;;;;;;;9.30;4.38;;;28.60;57.90;;;;;;5062053;28;20056;-76
2022/07/28 00:39:49;;;;;;;10.80;4.35;;;28.50;57.80;;;;;;5053384;28;20470;-76
2022/07/28 00:42:19;;;;;;;12.13;3.78;;;28.50;58.00;;;;;;5053000;28;20486;-72
2022/07/28 00:44:46;;;;;;;10.80;4.60;;;28.40;58.10;;;;;;5052710;28;20100;-71
2022/07/28 00:47:12;;;;;;;8.45;4.07;;;28.30;58.40;;;;;;5052966;28;20044;-72
2022/07/28 00:49:38;;;;;;;11.48;4.03;;;28.30;58.60;;;;;;5052686;28;20029;-71
2022/07/28 00:52:08;;;;;;;15.30;4.55;;;28.30;58.80;;;;;;5052596;28;20088;-71
2022/07/28 00:54:34;;;;;;;8.23;4.40;;;28.30;58.90;;;;;;5052677;28;20036;-73
2022/07/28 00:56:59;;;;;;;10.00;4.70;;;28.30;58.90;;;;;;5052808;28;20052;-70
2022/07/28 00:59:25;;;;;;;7.88;3.90;;;28.30;58.90;;;;;;5052639;28;20025;-72
2022/07/28 01:01:52;;;;;;;10.00;3.80;;;28.30;58.70;;;;;;5052581;28;20025;-71
2022/07/28 01:04:18;;;;;;;8.98;4.03;;;28.30;58.50;;;;;;5052684;28;20064;-71
2022/07/28 01:06:51;;;;;;;8.60;4.28;;;28.30;58.30;;;;;;5052608;28;20021;-69
2022/07/28 01:09:30;;;;;;;7.53;3.97;;;28.40;58.40;;;;;;5052376;28;20056;-69
2022/07/28 01:12:30;;;;;;;10.57;4.50;;;28.40;58.40;;;;;;5052551;28;20053;-73
2022/07/28 01:15:19;;;;;;;9.95;4.13;;;28.50;58.10;;;;;;5052281;28;20029;-74
2022/07/28 01:18:01;;;;;;;10.85;4.40;;;28.50;58.10;;;;;;5052258;28;20174;-70
2022/07/28 01:20:37;;;;;;;9.98;4.45;;;28.50;58.40;;;;;;5052258;28;20118;-69
2022/07/28 01:23:11;;;;;;;9.43;3.85;;;28.40;58.90;;;;;;5052133;28;20055;-71
2022/07/28 01:25:58;;;;;;;8.75;4.00;;;28.30;58.70;;;;;;5052058;28;20493;-69
2022/07/28 01:28:54;;;;;;;9.93;4.28;;;28.30;58.90;;;;;;5052138;28;20070;-70
2022/07/28 01:31:24;;;;;;;10.07;4.88;;;28.40;59.00;;;;;;5052166;28;20057;-70
2022/07/28 01:34:03;;;;;;;9.82;4.28;;;28.40;58.90;;;;;;5052154;28;20032;-72
2022/07/28 01:36:35;;;;;;;8.23;4.10;;;28.40;58.90;;;;;;5052846;28;20092;-71
2022/07/28 01:39:01;;;;;;;15.40;4.57;;;28.40;59.00;;;;;;5054916;28;20085;-70
2022/07/28 01:41:29;;;;;;;8.60;4.22;;;28.40;59.10;;;;;;5056008;28;20119;-72
2022/07/28 01:44:03;;;;;;;10.07;4.63;;;28.30;59.40;;;;;;5055986;28;20091;-71
2022/07/28 01:46:30;;;;;;;15.60;4.90;;;28.30;59.70;;;;;;5055933;28;20056;-69
2022/07/28 01:48:58;;;;;;;8.05;4.38;;;28.30;59.90;;;;;;5056140;28;20423;-69
2022/07/28 01:51:27;;;;;;;11.40;4.40;;;28.20;60.00;;;;;;5054691;28;20021;-72
2022/07/28 01:53:55;;;;;;;16.63;4.60;;;28.20;60.30;;;;;;5055947;28;20020;-75
2022/07/28 01:56:23;;;;;;;8.73;4.30;;;28.20;61.50;;;;;;5055650;28;20025;-76
2022/07/28 01:58:51;;;;;;;9.43;4.45;;;28.00;61.20;;;;;;5055620;28;20048;-74
2022/07/28 02:01:19;;;;;;;9.27;4.47;;;28.00;61.60;;;;;;5055728;28;20117;-74
2022/07/28 02:03:46;;;;;;;13.25;4.90;;;27.90;61.80;;;;;;5055461;28;20037;-74
2022/07/28 02:06:14;;;;;;;11.23;5.22;;;27.80;62.00;;;;;;5055711;28;20032;-76
2022/07/28 02:08:41;;;;;;;9.30;4.35;;;27.80;62.30;;;;;;5055314;28;20033;-75
2022/07/28 02:13:54;;;;;;;9.00;4.43;;;27.70;62.80;;;;;;5055751;28;20098;-78
2022/07/28 02:16:23;;;;;;;11.40;4.85;;;27.60;63.10;;;;;;5055488;28;20052;-73
2022/07/28 02:18:51;;;;;;;10.32;4.38;;;27.50;63.40;;;;;;5056339;28;20563;-79
2022/07/28 02:21:18;;;;;;;10.85;4.45;;;27.40;63.60;;;;;;5055619;28;20025;-75
2022/07/28 02:23:46;;;;;;;11.13;4.60;;;27.40;64.00;;;;;;5055441;28;20072;-77
2022/07/28 02:26:16;;;;;;;10.25;4.38;;;27.30;64.30;;;;;;5056054;28;20017;-77
2022/07/28 02:28:46;;;;;;;10.85;4.75;;;27.30;64.50;;;;;;5055822;28;20036;-80
2022/07/28 02:31:25;;;;;;;12.43;4.85;;;27.20;64.60;;;;;;5055245;28;20032;-76
2022/07/28 02:33:54;;;;;;;9.88;4.30;;;27.30;65.00;;;;;;5055319;28;20025;-79
2022/07/28 02:36:49;;;;;;;8.77;4.38;;;27.30;65.00;;;;;;5055085;28;20158;-74
2022/07/28 02:39:19;;;;;;;10.68;4.45;;;27.30;65.40;;;;;;5054789;28;20036;-75
2022/07/28 02:41:50;;;;;;;11.55;4.82;;;27.20;64.90;;;;;;5054760;28;20041;-75
2022/07/28 02:44:20;;;;;;;9.68;4.57;;;27.20;65.30;;;;;;5054683;28;20037;-75
2022/07/28 02:46:51;;;;;;;9.77;4.93;;;27.20;65.50;;;;;;5054791;28;20040;-76
2022/07/28 02:49:28;;;;;;;11.38;4.50;;;27.10;65.70;;;;;;5053791;28;20029;-69
2022/07/28 02:52:12;;;;;;;12.30;4.65;;;27.10;65.80;;;;;;5055464;28;20017;-69
2022/07/28 02:54:40;;;;;;;12.57;5.10;;;27.00;66.10;;;;;;5054486;28;20025;-70
2022/07/28 02:57:06;;;;;;;11.48;4.65;;;27.00;66.40;;;;;;5054413;28;20379;-71
2022/07/28 02:59:34;;;;;;;11.65;4.90;;;27.00;66.30;;;;;;5053339;28;20033;-69
2022/07/28 03:02:00;;;;;;;11.93;5.15;;;27.00;66.50;;;;;;5053336;28;20597;-70
2022/07/28 03:07:12;;;;;;;10.73;4.22;;;26.90;66.90;;;;;;5054742;28;20436;-73
2022/07/28 03:09:40;;;;;;;11.25;5.03;;;26.80;67.20;;;;;;5054552;28;20056;-76
2022/07/28 03:12:06;;;;;;;10.25;4.35;;;26.70;67.40;;;;;;5054633;28;20021;-75
2022/07/28 03:14:32;;;;;;;8.88;4.78;;;26.70;67.70;;;;;;5054590;28;20497;-79
2022/07/28 03:16:58;;;;;;;9.82;4.60;;;26.70;67.80;;;;;;5054529;28;20025;-78
2022/07/28 03:19:25;;;;;;;13.02;3.83;;;26.70;68.10;;;;;;5053189;28;20025;-74
2022/07/28 03:21:52;;;;;;;8.82;3.95;;;26.60;67.80;;;;;;5054274;28;20056;-77
2022/07/28 03:24:22;;;;;;;12.60;4.07;;;26.50;68.10;;;;;;5054165;28;20021;-76
2022/07/28 03:27:06;;;;;;;9.75;4.50;;;26.50;68.40;;;;;;5054110;28;20151;-76
2022/07/28 03:29:34;;;;;;;11.85;4.05;;;26.50;68.00;;;;;;5053409;28;20029;-75
2022/07/28 03:32:00;;;;;;;10.57;4.57;;;26.50;68.50;;;;;;5055333;28;20017;-79
2022/07/28 03:34:27;;;;;;;14.73;4.70;;;26.50;68.60;;;;;;5055601;28;20434;-74
2022/07/28 03:37:15;;;;;;;7.00;4.28;;;26.50;68.40;;;;;;5052988;28;20055;-73
2022/07/28 03:39:47;;;;;;;10.15;4.07;;;26.50;68.40;;;;;;5055178;28;20079;-77
2022/07/28 03:42:17;;;;;;;7.43;4.35;;;26.50;68.20;;;;;;5059133;28;20109;-75
2022/07/28 03:44:46;;;;;;;9.85;4.72;;;26.50;68.20;;;;;;5059974;28;20037;-74
2022/07/28 03:47:12;;;;;;;12.10;4.97;;;26.50;68.10;;;;;;5058956;28;20029;-76
2022/07/28 03:49:38;;;;;;;10.43;4.65;;;26.50;67.90;;;;;;5054188;28;20052;-72
2022/07/28 03:52:04;;;;;;;10.35;4.90;;;26.50;67.70;;;;;;5053065;28;20048;-77
2022/07/28 03:54:30;;;;;;;8.82;4.63;;;26.50;67.90;;;;;;5053929;28;20017;-75
2022/07/28 03:56:58;;;;;;;7.93;4.40;;;26.40;67.70;;;;;;5054018;28;20494;-78
2022/07/28 03:59:23;;;;;;;10.80;5.15;;;26.50;67.80;;;;;;5053334;28;20025;-78
2022/07/28 04:01:49;;;;;;;9.70;4.63;;;26.50;67.60;;;;;;5053827;28;20083;-75
2022/07/28 04:04:16;;;;;;;9.48;4.90;;;26.60;67.30;;;;;;5052951;28;20055;-77
2022/07/28 04:06:42;;;;;;;9.65;4.50;;;26.60;67.10;;;;;;5053292;28;20386;-76
2022/07/28 04:09:07;;;;;;;11.77;4.97;;;26.60;67.20;;;;;;5053338;28;20036;-77
2022/07/28 04:11:34;;;;;;;14.65;6.05;;;26.60;67.10;;;;;;5053649;28;20075;-78
2022/07/28 04:14:10;;;;;;;11.55;5.40;;;26.60;67.00;;;;;;5053404;28;20025;-77
2022/07/28 04:16:35;;;;;;;10.45;4.88;;;26.60;67.30;;;;;;5053487;28;20031;-78
2022/07/28 04:19:01;;;;;;;12.15;5.18;;;26.60;67.20;;;;;;5053550;28;20033;-76
2022/07/28 04:21:27;;;;;;;9.85;4.90;;;26.60;67.00;;;;;;5053122;28;20462;-78
2022/07/28 04:23:54;;;;;;;10.93;4.68;;;26.60;67.00;;;;;;5051711;28;20052;-76
2022/07/28 04:26:20;;;;;;;12.07;4.97;;;26.60;67.20;;;;;;5053002;28;20463;-79
2022/07/28 04:28:46;;;;;;;17.95;5.47;;;26.50;67.20;;;;;;5053398;28;20025;-77
2022/07/28 04:31:13;;;;;;;12.40;5.28;;;26.60;67.20;;;;;;5052014;28;20142;-75
2022/07/28 04:33:41;;;;;;;8.43;4.80;;;26.60;67.20;;;;;;5053427;28;20025;-76
2022/07/28 04:36:07;;;;;;;11.68;5.28;;;26.70;67.20;;;;;;5053007;28;20029;-72
2022/07/28 04:38:33;;;;;;;14.00;5.05;;;26.70;66.80;;;;;;5051803;28;20036;-75
2022/07/28 04:40:59;;;;;;;11.95;5.25;;;26.70;66.90;;;;;;5052997;28;20086;-71
2022/07/28 04:43:26;;;;;;;11.52;5.72;;;26.70;66.70;;;;;;5052967;28;20040;-74
2022/07/28 04:45:52;;;;;;;10.02;5.07;;;26.70;66.70;;;;;;5051384;28;20442;-72
2022/07/28 04:48:18;;;;;;;11.68;5.70;;;26.70;66.80;;;;;;5052916;28;20032;-72
2022/07/28 04:50:44;;;;;;;10.90;5.22;;;26.70;66.60;;;;;;5052952;28;20027;-71
2022/07/28 04:53:11;;;;;;;9.55;5.05;;;26.70;66.70;;;;;;5053175;28;20029;-77
2022/07/28 04:55:40;;;;;;;8.07;4.80;;;26.70;66.40;;;;;;5052795;28;20103;-72
2022/07/28 04:58:05;;;;;;;8.98;4.88;;;26.70;66.70;;;;;;5052545;28;20123;-74
2022/07/28 05:00:31;;;;;;;13.05;5.40;;;26.70;66.40;;;;;;5053016;28;20064;-76
2022/07/28 05:02:57;;;;;;;12.27;4.40;;;26.70;66.30;;;;;;5052656;28;20032;-72
2022/07/28 05:05:24;;;;;;;8.40;4.93;;;26.80;66.20;;;;;;5051057;28;20033;-70
2022/07/28 05:07:52;;;;;;;9.68;5.13;;;26.80;66.20;;;;;;5051081;28;20029;-70
2022/07/28 05:10:18;;;;;;;10.57;4.53;;;26.90;66.50;;;;;;5052475;28;20082;-69
2022/07/28 05:12:46;;;;;;;8.65;4.90;;;27.00;65.90;;;;;;5058237;28;20021;-70
2022/07/28 05:15:11;;;;;;;11.10;5.10;;;27.00;65.90;;;;;;5059066;28;20028;-70
2022/07/28 05:17:37;;;;;;;9.48;5.35;;;27.10;65.60;;;;;;5059262;28;20017;-69
2022/07/28 05:20:04;;;;;;;10.88;4.70;;;27.20;65.20;;;;;;5059357;28;20024;-71
2022/07/28 05:22:43;;;;;;;10.07;4.40;;;27.30;65.50;;;;;;5059069;28;20500;-70
2022/07/28 05:25:16;;;;;;;11.43;4.65;;;27.50;65.40;;;;;;5059030;28;20025;-70
2022/07/28 05:27:42;;;;;;;13.07;4.55;;;27.80;64.20;;;;;;5059148;28;20110;-70
2022/07/28 05:30:10;;;;;;;13.07;5.10;;;28.10;63.40;;;;;;5058887;28;20122;-71
2022/07/28 05:32:36;;;;;;;8.60;4.38;;;28.50;62.60;;;;;;5058760;28;20490;-69
2022/07/28 05:35:02;;;;;;;13.18;4.85;;;28.80;61.60;;;;;;5059013;28;20032;-70
2022/07/28 05:37:29;;;;;;;14.95;4.55;;;29.00;61.30;;;;;;5059179;28;20045;-73
2022/07/28 05:39:55;;;;;;;11.68;4.32;;;29.20;60.10;;;;;;5059147;28;20381;-74
2022/07/28 05:42:20;;;;;;;10.63;4.97;;;29.50;60.00;;;;;;5059176;28;20458;-74
2022/07/28 05:44:46;;;;;;;12.48;4.50;;;29.70;59.50;;;;;;5059588;28;20037;-76
2022/07/28 05:47:12;;;;;;;13.32;5.32;;;29.80;59.20;;;;;;5061502;28;20017;-80
2022/07/28 05:49:37;;;;;;;13.13;5.28;;;29.90;58.70;;;;;;5062057;28;20068;-75
2022/07/28 05:52:03;;;;;;;14.93;4.95;;;29.90;58.30;;;;;;5074908;28;20013;-76
2022/07/28 05:54:29;;;;;;;10.88;4.85;;;30.10;58.00;;;;;;5079098;28;20032;-75
2022/07/28 05:56:54;;;;;;;13.27;5.70;;;30.30;57.60;;;;;;5078515;28;20044;-79
2022/07/28 05:59:20;;;;;;;9.07;4.57;;;30.40;58.00;;;;;;5067360;28;20109;-78
2022/07/28 06:01:46;;;;;;;14.73;4.88;;;30.80;57.10;;;;;;5074422;28;20114;-74
2022/07/28 06:04:11;;;;;;;12.40;5.20;;;31.00;56.30;;;;;;5079023;28;20036;-71
2022/07/28 06:06:37;;;;;;;12.50;5.15;;;31.20;55.90;;;;;;5078906;28;20020;-72
2022/07/28 06:09:03;;;;;;;11.90;4.53;;;31.40;55.70;;;;;;5078720;28;20040;-73
2022/07/28 06:11:28;;;;;;;13.75;4.80;;;31.70;55.20;;;;;;5078859;28;20466;-71
2022/07/28 06:13:54;;;;;;;12.55;4.78;;;31.80;54.70;;;;;;5079217;28;20078;-73
2022/07/28 06:16:21;;;;;;;13.93;5.00;;;32.10;54.30;;;;;;5078356;28;20385;-71
2022/07/28 06:18:48;;;;;;;12.25;4.95;;;32.30;54.00;;;;;;5078565;28;20070;-73
2022/07/28 06:21:14;;;;;;;15.20;5.00;;;32.30;53.60;;;;;;5076728;28;20029;-72
2022/07/28 06:23:39;;;;;;;13.02;5.22;;;32.10;53.70;;;;;;5074730;28;20450;-71
2022/07/28 06:26:05;;;;;;;13.48;4.72;;;32.30;53.40;;;;;;5075253;28;20028;-73
2022/07/28 06:28:33;;;;;;;13.77;4.95;;;32.40;53.00;;;;;;5075184;28;20369;-73
2022/07/28 06:31:00;;;;;;;24.95;6.03;;;32.60;51.90;;;;;;5075312;28;20020;-72
2022/07/28 06:33:26;;;;;;;12.48;4.95;;;32.70;52.60;;;;;;5069099;28;20421;-71
2022/07/28 06:35:52;;;;;;;17.38;5.18;;;32.80;53.50;;;;;;5073799;28;20493;-73
2022/07/28 06:38:19;;;;;;;15.57;5.10;;;32.90;52.60;;;;;;5073843;28;20474;-74
2022/07/28 06:40:45;;;;;;;16.98;6.07;;;32.70;53.30;;;;;;5058594;28;20024;-72
2022/07/28 06:43:13;;;;;;;16.52;5.88;;;32.80;53.30;;;;;;5052664;28;20098;-71
2022/07/28 06:45:39;;;;;;;14.30;5.90;;;33.00;52.40;;;;;;5054509;28;20029;-73
2022/07/28 06:48:06;;;;;;;13.95;5.05;;;33.10;52.40;;;;;;5067905;28;20524;-73
2022/07/28 06:50:32;;;;;;;13.60;5.60;;;33.20;52.10;;;;;;5074518;28;20496;-75
2022/07/28 06:52:58;;;;;;;17.75;6.25;;;33.30;52.30;;;;;;5070519;28;20025;-72
2022/07/28 06:55:24;;;;;;;16.95;4.70;;;33.40;51.90;;;;;;5076900;28;20649;-70
2022/07/28 06:57:50;;;;;;;15.77;5.38;;;33.50;52.80;;;;;;5077260;28;20048;-73
2022/07/28 07:00:15;;;;;;;11.88;4.53;;;33.50;52.10;;;;;;5074671;28;20024;-73
2022/07/28 07:02:41;;;;;;;10.20;4.43;;;33.50;53.00;;;;;;5074617;28;20024;-74
2022/07/28 07:05:08;;;;;;;19.65;5.53;;;33.60;53.00;;;;;;5068492;28;20037;-71
2022/07/28 07:07:34;;;;;;;13.32;5.47;;;33.70;53.50;;;;;;5054708;28;20032;-73
2022/07/28 07:10:00;;;;;;;11.35;4.88;;;33.70;51.60;;;;;;5054577;28;20028;-77
2022/07/28 07:12:26;;;;;;;14.80;5.38;;;33.50;52.00;;;;;;5055263;28;20025;-75
2022/07/28 07:14:52;;;;;;;22.98;6.18;;;33.30;52.20;;;;;;5054713;28;20132;-72
2022/07/28 07:17:18;;;;;;;12.27;5.13;;;33.50;52.10;;;;;;5054337;28;20021;-73
2022/07/28 07:19:44;;;;;;;15.55;5.20;;;33.60;52.60;;;;;;5055139;28;20032;-73
2022/07/28 07:22:13;;;;;;;15.93;4.93;;;33.40;53.00;;;;;;5054671;28;20024;-75
2022/07/28 07:24:39;;;;;;;16.48;6.28;;;33.50;53.20;;;;;;5054367;28;20028;-74
2022/07/28 07:27:05;;;;;;;11.65;4.85;;;33.50;52.70;;;;;;5054068;28;20490;-76
2022/07/28 07:29:30;;;;;;;14.63;5.22;;;33.60;53.00;;;;;;5053879;28;20037;-77
2022/07/28 07:31:57;;;;;;;13.98;5.35;;;33.70;52.40;;;;;;5053784;28;20421;-74
2022/07/28 07:34:23;;;;;;;15.93;4.60;;;33.90;52.60;;;;;;5053452;28;20370;-77
2022/07/28 07:36:48;;;;;;;16.27;4.97;;;33.90;52.90;;;;;;5053739;28;20027;-76
2022/07/28 07:39:14;;;;;;;16.88;5.20;;;33.90;53.20;;;;;;5054053;28;20033;-77
2022/07/28 07:41:41;;;;;;;18.13;5.78;;;34.00;52.90;;;;;;5053992;28;20025;-75
2022/07/28 07:44:08;;;;;;;17.42;5.20;;;34.00;52.60;;;;;;5053597;28;20063;-75
2022/07/28 07:46:35;;;;;;;15.65;4.38;;;34.00;52.80;;;;;;5053782;28;20099;-75
2022/07/28 07:49:01;;;;;;;13.05;4.40;;;33.80;53.40;;;;;;5053846;28;20059;-74
2022/07/28 07:51:27;;;;;;;12.75;4.85;;;33.70;54.30;;;;;;5053690;28;20021;-76
2022/07/28 07:53:52;;;;;;;17.75;4.90;;;33.60;54.50;;;;;;5053743;28;20025;-74
2022/07/28 07:56:18;;;;;;;17.63;5.78;;;33.60;54.00;;;;;;5053643;28;20029;-76
2022/07/28 07:58:44;;;;;;;15.98;5.32;;;33.50;55.20;;;;;;5053145;28;20426;-75
2022/07/28 08:01:11;;;;;;;17.13;5.95;;;33.60;54.30;;;;;;5053728;28;20025;-75
2022/07/28 08:03:37;;;;;;;19.85;5.50;;;33.70;54.30;;;;;;5054030;28;20124;-75
2022/07/28 08:06:03;;;;;;;17.48;5.88;;;33.70;54.20;;;;;;5053278;28;20110;-76
2022/07/28 08:08:28;;;;;;;13.88;5.10;;;33.70;53.70;;;;;;5053227;28;20025;-78
2022/07/28 08:10:54;;;;;;;16.85;6.28;;;33.70;55.00;;;;;;5053290;28;20071;-73
2022/07/28 08:13:21;;;;;;;10.65;4.90;;;33.60;54.20;;;;;;5052850;28;20024;-75
2022/07/28 08:15:48;;;;;;;16.05;5.47;;;33.60;54.30;;;;;;5053062;28;20107;-76
2022/07/28 08:18:13;;;;;;;15.40;5.10;;;33.60;54.80;;;;;;5053080;28;20021;-74
2022/07/28 08:20:40;;;;;;;13.98;4.90;;;33.50;55.40;;;;;;5052881;28;20024;-74
2022/07/28 08:23:05;;;;;;;16.98;5.20;;;33.30;55.90;;;;;;5051358;28;20029;-73
2022/07/28 08:25:34;;;;;;;17.15;4.85;;;33.30;55.90;;;;;;5052584;28;20064;-74
2022/07/28 08:28:00;;;;;;;47.13;8.23;;;33.30;56.20;;;;;;5052636;28;20104;-75
2022/07/28 08:30:25;;;;;;;16.63;5.80;;;33.30;56.10;;;;;;5052795;28;20119;-76
2022/07/28 08:32:51;;;;;;;25.83;6.30;;;33.30;56.40;;;;;;5052349;28;20449;-74
2022/07/28 08:35:17;;;;;;;17.40;5.28;;;33.20;56.60;;;;;;5051076;28;20025;-73
2022/07/28 08:37:42;;;;;;;33.17;7.68;;;33.20;56.60;;;;;;5052382;28;20028;-75
2022/07/28 08:40:15;;;;;;;27.88;6.35;;;33.20;56.90;;;;;;5052940;28;20161;-73
2022/07/28 08:43:00;;;;;;;20.88;5.50;;;33.20;56.40;;;;;;5053046;28;20024;-78
2022/07/28 08:45:27;;;;;;;20.75;5.50;;;33.10;55.80;;;;;;5051150;28;20085;-76
2022/07/28 08:47:56;;;;;;;15.18;4.57;;;33.00;57.50;;;;;;5052280;28;20071;-74
2022/07/28 08:50:23;;;;;;;19.10;5.00;;;32.90;57.40;;;;;;5052838;28;20074;-76
2022/07/28 08:52:50;;;;;;;13.13;5.15;;;32.90;57.40;;;;;;5052010;28;20397;-76
2022/07/28 08:55:25;;;;;;;19.23;6.90;;;32.90;57.40;;;;;;5053515;28;20039;-70
2022/07/28 08:57:55;;;;;;;26.80;6.82;;;32.90;55.90;;;;;;5052580;28;20061;-72
2022/07/28 09:00:23;;;;;;;20.40;6.63;;;32.90;56.90;;;;;;5052303;28;20037;-74
2022/07/28 09:02:50;;;;;;;19.35;5.63;;;32.90;56.40;;;;;;5052121;28;20052;-72
2022/07/28 09:05:16;;;;;;;16.30;4.50;;;32.90;56.20;;;;;;5051838;28;20036;-71
2022/07/28 09:07:49;;;;;;;17.48;5.03;;;32.90;55.90;;;;;;5052298;28;20052;-70
2022/07/28 09:10:17;;;;;;;14.45;4.35;;;32.90;55.40;;;;;;5051973;28;20419;-72
2022/07/28 09:12:44;;;;;;;16.13;5.00;;;32.90;54.80;;;;;;5052073;28;20021;-71
2022/07/28 09:15:12;;;;;;;14.35;4.47;;;32.90;54.30;;;;;;5051000;28;20025;-68
2022/07/28 09:17:39;;;;;;;16.70;4.60;;;32.90;54.20;;;;;;5050703;28;20025;-69
2022/07/28 09:20:06;;;;;;;11.25;3.92;;;32.90;53.80;;;;;;5051983;28;20036;-72
2022/07/28 09:22:33;;;;;;;18.20;5.68;;;32.80;53.30;;;;;;5052111;28;20032;-69
2022/07/28 09:25:01;;;;;;;13.55;4.18;;;32.90;53.80;;;;;;5051809;28;20063;-66
2022/07/28 09:27:26;;;;;;;17.73;4.45;;;32.80;54.10;;;;;;5051946;28;20118;-68
2022/07/28 09:29:59;;;;;;;14.43;4.00;;;32.80;54.00;;;;;;5052186;28;20083;-68
2022/07/28 09:32:26;;;;;;;13.15;4.03;;;32.80;53.60;;;;;;5051954;28;20017;-69
2022/07/28 09:34:52;;;;;;;9.77;4.03;;;32.80;53.60;;;;;;5052168;28;20086;-71
2022/07/28 09:37:22;;;;;;;14.27;4.13;;;32.90;54.40;;;;;;5052353;28;20028;-72
2022/07/28 09:39:49;;;;;;;33.28;5.18;;;32.90;52.00;;;;;;5052468;28;20025;-72
2022/07/28 09:42:18;;;;;;;15.93;4.30;;;33.00;53.80;;;;;;5051843;28;20085;-69
2022/07/28 09:45:01;;;;;;;14.60;4.30;;;32.90;53.90;;;;;;5051735;28;20040;-70
2022/07/28 09:47:31;;;;;;;;;;;32.90;53.30;;;;;;5052471;28;20014;-75
2022/07/28 09:49:58;;;;;;;33.05;5.72;;;32.80;53.10;;;;;;5051793;28;19905;-71
2022/07/28 09:52:36;;;;;;;120.43;12.82;;;32.80;53.60;;;;;;5051887;28;20053;-71
2022/07/28 09:55:09;;;;;;;21.25;4.22;;;32.80;51.60;;;;;;5051983;28;20023;-67
2022/07/28 09:57:37;;;;;;;26.33;4.70;;;32.80;53.20;;;;;;5053072;28;20197;-70
2022/07/28 10:00:07;;;;;;;21.70;4.35;;;32.80;52.80;;;;;;5054583;28;20027;-70
2022/07/28 10:02:33;;;;;;;10.65;3.45;;;32.70;51.90;;;;;;5056163;28;20033;-70
2022/07/28 10:04:59;;;;;;;11.52;4.00;;;32.80;52.80;;;;;;5055676;28;20104;-71
2022/07/28 10:07:29;;;;;;;16.63;4.75;;;32.80;52.80;;;;;;5055876;28;20128;-70
2022/07/28 10:10:06;;;;;;;15.38;4.10;;;32.80;52.50;;;;;;5055773;28;20028;-69
2022/07/28 10:12:34;;;;;;;14.70;4.15;;;32.80;52.10;;;;;;5055971;28;20025;-71
2022/07/28 10:18:02;;;;;;;12.88;3.70;;;32.60;49.80;;;;;;5055565;28;20067;-74
2022/07/28 10:20:31;;;;;;;15.93;4.43;;;32.50;52.20;;;;;;5055646;28;20025;-72
2022/07/28 10:23:01;;;;;;;9.65;3.17;;;32.60;52.70;;;;;;5055448;28;20483;-73
2022/07/28 10:25:30;;;;;;;13.77;4.15;;;32.70;52.40;;;;;;5055362;28;20055;-70
2022/07/28 10:27:58;;;;;;;11.65;4.10;;;32.80;52.40;;;;;;5054027;28;20025;-70
2022/07/28 10:30:24;;;;;;;20.40;4.20;;;32.80;51.80;;;;;;5055489;28;20389;-71
2022/07/28 10:32:53;;;;;;;13.35;4.45;;;32.90;52.20;;;;;;5055298;28;20079;-74
2022/07/28 10:35:21;;;;;;;15.35;3.70;;;32.90;51.80;;;;;;5055484;28;20040;-73
2022/07/28 10:37:57;;;;;;;14.93;4.45;;;32.90;51.60;;;;;;5055353;28;20017;-74
2022/07/28 10:40:30;;;;;;;10.20;3.35;;;33.00;51.20;;;;;;5055648;28;20047;-74
2022/07/28 10:42:57;;;;;;;11.13;3.35;;;33.00;50.80;;;;;;5054728;28;20044;-74
2022/07/28 10:45:23;;;;;;;11.85;3.65;;;32.90;50.90;;;;;;5055946;28;20091;-73
2022/07/28 10:47:49;;;;;;;16.25;4.63;;;33.00;50.50;;;;;;5055866;28;20025;-73
2022/07/28 10:50:21;;;;;;;9.60;3.20;;;33.00;48.50;;;;;;5055963;28;20233;-78
2022/07/28 10:52:47;;;;;;;11.45;3.47;;;33.10;48.50;;;;;;5053896;28;20107;-77
2022/07/28 10:55:32;;;;;;;12.98;3.10;;;33.20;48.40;;;;;;5053542;28;20485;-80
2022/07/28 10:58:12;;;;;;;10.43;3.38;;;33.30;47.80;;;;;;5054983;28;20041;-78
2022/07/28 11:00:48;;;;;;;11.25;3.10;;;33.40;47.60;;;;;;5055189;28;20028;-77
2022/07/28 11:03:48;;;;;;;10.45;3.10;;;33.50;47.10;;;;;;5054993;28;20490;-75
2022/07/28 11:06:35;;;;;;;9.00;3.30;;;33.50;47.20;;;;;;5044076;28;20044;-78
2022/07/28 11:09:20;;;;;;;13.05;3.20;;;33.70;47.50;;;;;;5054344;28;20021;-80
2022/07/28 11:11:48;;;;;;;10.05;2.78;;;33.70;46.80;;;;;;5055009;28;20108;-80
2022/07/28 11:14:36;;;;;;;15.70;3.53;;;33.80;47.00;;;;;;5055402;28;20040;-79
2022/07/28 11:17:03;;;;;;;9.07;3.33;;;33.90;46.70;;;;;;5054089;28;20056;-81
2022/07/28 11:19:44;;;;;;;9.55;3.30;;;33.90;46.60;;;;;;5054796;28;20414;-81
2022/07/28 11:22:23;;;;;;;10.30;3.03;;;33.90;46.40;;;;;;5054654;28;20454;-77
2022/07/28 11:27:44;;;;;;;9.18;3.28;;;34.00;46.20;;;;;;5054886;28;20047;-79
2022/07/28 11:30:50;;;;;;;8.95;3.00;;;34.10;44.90;;;;;;5054303;28;20419;-81
2022/07/28 11:33:16;;;;;;;12.18;3.38;;;34.00;45.70;;;;;;5032832;28;20510;-76
2022/07/28 11:35:53;;;;;;;10.98;2.50;;;34.10;45.30;;;;;;5051897;28;20119;-77
2022/07/28 11:38:22;;;;;;;11.98;3.22;;;34.20;45.00;;;;;;5053534;28;20135;-75
2022/07/28 11:40:50;;;;;;;8.80;2.70;;;34.20;45.40;;;;;;5054131;28;20124;-78
2022/07/28 11:43:37;;;;;;;11.93;2.90;;;34.30;44.70;;;;;;5053828;28;20040;-77
2022/07/28 11:46:15;;;;;;;12.10;2.90;;;34.30;44.90;;;;;;5054089;28;20028;-77
2022/07/28 11:48:43;;;;;;;10.35;2.92;;;34.20;44.30;;;;;;5054196;28;20040;-78
2022/07/28 11:51:11;;;;;;;9.20;2.83;;;34.30;44.40;;;;;;5053084;28;20373;-77
2022/07/28 11:53:37;;;;;;;8.65;2.72;;;34.30;44.10;;;;;;5053782;28;20441;-79
2022/07/28 11:56:08;;;;;;;11.15;3.28;;;34.30;44.30;;;;;;5053188;28;20055;-79
2022/07/28 11:58:36;;;;;;;11.35;2.67;;;34.30;44.00;;;;;;5053538;28;20057;-80
2022/07/28 12:01:22;;;;;;;9.18;2.70;;;34.30;43.80;;;;;;5054311;28;20108;-76
2022/07/28 12:03:51;;;;;;;7.00;2.63;;;34.40;44.60;;;;;;5053184;28;20037;-79
2022/07/28 12:06:19;;;;;;;9.55;2.50;;;34.40;44.30;;;;;;5052853;28;20040;-76
2022/07/28 12:08:58;;;;;;;8.88;2.47;;;34.40;44.20;;;;;;5054394;28;20019;-73
2022/07/28 12:11:26;;;;;;;7.95;2.80;;;34.40;44.80;;;;;;5053912;28;20056;-74
2022/07/28 12:14:08;;;;;;;10.63;2.72;;;34.40;44.20;;;;;;5052933;28;20036;-74
2022/07/28 12:16:37;;;;;;;9.90;3.13;;;34.50;45.60;;;;;;5053856;28;20104;-76
2022/07/28 12:19:05;;;;;;;7.47;2.50;;;34.50;44.80;;;;;;5053373;28;20469;-76
2022/07/28 12:21:44;;;;;;;9.15;2.60;;;34.50;44.30;;;;;;5051468;28;20033;-77
2022/07/28 12:24:14;;;;;;;9.40;2.50;;;34.50;44.50;;;;;;5053303;28;20051;-77
2022/07/28 12:26:41;;;;;;;7.25;2.65;;;34.50;44.20;;;;;;5051807;28;20045;-75
2022/07/28 12:29:11;;;;;;;10.20;3.15;;;34.50;43.50;;;;;;5053061;28;20107;-75
2022/07/28 12:31:54;;;;;;;7.13;2.40;;;34.50;44.20;;;;;;5052380;28;20017;-78
2022/07/28 12:34:20;;;;;;;8.00;2.60;;;34.50;44.20;;;;;;5054860;28;20029;-75
2022/07/28 12:36:46;;;;;;;9.38;2.78;;;34.60;44.00;;;;;;5053225;28;20024;-78
2022/07/28 12:39:15;;;;;;;12.60;2.83;;;34.60;43.80;;;;;;5053285;28;20039;-76
2022/07/28 12:41:43;;;;;;;7.38;2.90;;;34.70;43.80;;;;;;5053223;28;20155;-76
2022/07/28 12:44:10;;;;;;;6.85;2.75;;;34.70;44.70;;;;;;5051649;28;20044;-74
2022/07/28 12:46:36;;;;;;;11.55;2.80;;;34.70;44.20;;;;;;5053106;28;20032;-73
2022/07/28 12:49:03;;;;;;;8.32;2.58;;;34.80;44.60;;;;;;5053022;28;20378;-75
2022/07/28 12:51:40;;;;;;;9.55;2.40;;;34.70;45.90;;;;;;5053138;28;20021;-75
2022/07/28 12:54:10;;;;;;;10.52;2.80;;;34.80;45.70;;;;;;5052797;28;20494;-73
2022/07/28 12:56:55;;;;;;;15.10;2.70;;;34.80;45.00;;;;;;5051615;28;20033;-73
2022/07/28 12:59:30;;;;;;;10.30;2.53;;;34.80;44.80;;;;;;5051656;28;20065;-75
2022/07/28 13:01:59;;;;;;;12.68;2.50;;;34.80;44.90;;;;;;5051635;28;20025;-74